sensor_id;sensor_type;location;lat;lon;timestamp;P1;durP1;ratioP1;P2;durP2;ratioP2
19887;SDS011;10106;51.332;12.336;2022-10-26T00:00:20;10.07;;;3.60;;
19887;SDS011;10106;51.332;12.336;2022-10-26T00:02:46;6.80;;;3.60;;
19887;SDS011;10106;51.332;12.336;2022-10-26T00:05:12;5.77;;;3.50;;
19887;SDS011;10106;51.332;12.336;2022-10-26T00:07:37;8.93;;;4.77;;
19887;SDS011;10106;51.332;12.336;2022-10-26T00:10:03;15.17;;;4.33;;
19887;SDS011;10106;51.332;12.336;2022-10-26T00:12:29;4.50;;;3.60;;
19887;SDS011;10106;51.332;12.336;2022-10-26T00:14:55;5.67;;;4.27;;
19887;SDS011;10106;51.332;12.336;2022-10-26T00:17:20;5.53;;;3.80;;
19887;SDS011;10106;51.332;12.336;2022-10-26T00:19:46;4.90;;;4.10;;
19887;SDS011;10106;51.332;12.336;2022-10-26T00:22:12;10.07;;;5.50;;
19887;SDS011;10106;51.332;12.336;2022-10-26T00:24:38;7.20;;;4.60;;
19887;SDS011;10106;51.332;12.336;2022-10-26T00:27:04;5.93;;;4.20;;
19887;SDS011;10106;51.332;12.336;2022-10-26T00:29:29;7.13;;;4.23;;
19887;SDS011;10106;51.332;12.336;2022-10-26T00:31:55;9.87;;;3.80;;
19887;SDS011;10106;51.332;12.336;2022-10-26T00:34:20;5.30;;;4.17;;
19887;SDS011;10106;51.332;12.336;2022-10-26T00:36:46;8.80;;;4.00;;
19887;SDS011;10106;51.332;12.336;2022-10-26T00:39:12;5.20;;;3.53;;
19887;SDS011;10106;51.332;12.336;2022-10-26T00:41:38;6.73;;;4.40;;
19887;SDS011;10106;51.332;12.336;2022-10-26T00:47:10;6.57;;;4.10;;
19887;SDS011;10106;51.332;12.336;2022-10-26T00:49:42;9.97;;;3.77;;
19887;SDS011;10106;51.332;12.336;2022-10-26T00:52:11;11.13;;;3.90;;
19887;SDS011;10106;51.332;12.336;2022-10-26T00:54:38;5.00;;;4.00;;
19887;SDS011;10106;51.332;12.336;2022-10-26T00:57:04;4.80;;;3.70;;
19887;SDS011;10106;51.332;12.336;2022-10-26T00:59:30;8.83;;;4.30;;
19887;SDS011;10106;51.332;12.336;2022-10-26T01:01:57;5.80;;;3.83;;
19887;SDS011;10106;51.332;12.336;2022-10-26T01:04:23;14.17;;;4.60;;
19887;SDS011;10106;51.332;12.336;2022-10-26T01:06:49;11.97;;;4.77;;
19887;SDS011;10106;51.332;12.336;2022-10-26T01:09:15;7.83;;;3.97;;
19887;SDS011;10106;51.332;12.336;2022-10-26T01:11:43;9.60;;;4.90;;
19887;SDS011;10106;51.332;12.336;2022-10-26T01:14:09;7.03;;;4.40;;
19887;SDS011;10106;51.332;12.336;2022-10-26T01:22:21;5.90;;;3.70;;
19887;SDS011;10106;51.332;12.336;2022-10-26T01:27:35;5.87;;;4.13;;
19887;SDS011;10106;51.332;12.336;2022-10-26T01:30:12;6.17;;;4.37;;
19887;SDS011;10106;51.332;12.336;2022-10-26T01:35:37;7.90;;;4.17;;
19887;SDS011;10106;51.332;12.336;2022-10-26T01:38:10;17.53;;;4.40;;
19887;SDS011;10106;51.332;12.336;2022-10-26T01:41:03;10.40;;;3.93;;
19887;SDS011;10106;51.332;12.336;2022-10-26T01:43:40;14.77;;;3.77;;
19887;SDS011;10106;51.332;12.336;2022-10-26T01:46:10;13.80;;;3.97;;
19887;SDS011;10106;51.332;12.336;2022-10-26T01:48:37;6.17;;;3.90;;
19887;SDS011;10106;51.332;12.336;2022-10-26T01:51:05;5.80;;;4.10;;
19887;SDS011;10106;51.332;12.336;2022-10-26T01:53:33;12.00;;;4.33;;
19887;SDS011;10106;51.332;12.336;2022-10-26T01:55:59;9.17;;;4.50;;
19887;SDS011;10106;51.332;12.336;2022-10-26T02:07:01;6.13;;;4.33;;
19887;SDS011;10106;51.332;12.336;2022-10-26T02:12:05;5.30;;;3.40;;
19887;SDS011;10106;51.332;12.336;2022-10-26T02:14:42;4.70;;;3.20;;
19887;SDS011;10106;51.332;12.336;2022-10-26T02:17:28;8.87;;;3.60;;
19887;SDS011;10106;51.332;12.336;2022-10-26T02:20:05;3.20;;;2.97;;
19887;SDS011;10106;51.332;12.336;2022-10-26T02:24:59;4.40;;;3.20;;
19887;SDS011;10106;51.332;12.336;2022-10-26T02:27:30;7.60;;;4.27;;
19887;SDS011;10106;51.332;12.336;2022-10-26T02:30:01;5.17;;;3.97;;
19887;SDS011;10106;51.332;12.336;2022-10-26T02:32:29;10.20;;;4.10;;
19887;SDS011;10106;51.332;12.336;2022-10-26T02:34:59;6.50;;;4.30;;
19887;SDS011;10106;51.332;12.336;2022-10-26T02:37:26;7.67;;;4.23;;
19887;SDS011;10106;51.332;12.336;2022-10-26T02:39:54;7.37;;;4.50;;
19887;SDS011;10106;51.332;12.336;2022-10-26T02:42:22;7.70;;;4.50;;
19887;SDS011;10106;51.332;12.336;2022-10-26T02:44:53;6.83;;;4.37;;
19887;SDS011;10106;51.332;12.336;2022-10-26T02:47:22;6.00;;;4.00;;
19887;SDS011;10106;51.332;12.336;2022-10-26T02:49:50;7.23;;;3.73;;
19887;SDS011;10106;51.332;12.336;2022-10-26T02:57:17;7.27;;;4.20;;
19887;SDS011;10106;51.332;12.336;2022-10-26T02:59:47;9.33;;;5.17;;
19887;SDS011;10106;51.332;12.336;2022-10-26T03:02:14;11.60;;;3.93;;
19887;SDS011;10106;51.332;12.336;2022-10-26T03:04:41;9.47;;;3.70;;
19887;SDS011;10106;51.332;12.336;2022-10-26T03:07:07;8.30;;;4.50;;
19887;SDS011;10106;51.332;12.336;2022-10-26T03:09:33;5.83;;;4.03;;
19887;SDS011;10106;51.332;12.336;2022-10-26T03:11:58;9.30;;;4.27;;
19887;SDS011;10106;51.332;12.336;2022-10-26T03:14:24;6.30;;;3.83;;
19887;SDS011;10106;51.332;12.336;2022-10-26T03:16:49;14.43;;;5.20;;
19887;SDS011;10106;51.332;12.336;2022-10-26T03:19:15;8.37;;;4.63;;
19887;SDS011;10106;51.332;12.336;2022-10-26T03:21:40;8.10;;;4.67;;
19887;SDS011;10106;51.332;12.336;2022-10-26T03:24:06;12.80;;;4.57;;
19887;SDS011;10106;51.332;12.336;2022-10-26T03:26:33;5.80;;;3.93;;
19887;SDS011;10106;51.332;12.336;2022-10-26T03:28:58;6.57;;;4.40;;
19887;SDS011;10106;51.332;12.336;2022-10-26T03:31:24;9.30;;;4.13;;
19887;SDS011;10106;51.332;12.336;2022-10-26T03:33:49;7.93;;;4.90;;
19887;SDS011;10106;51.332;12.336;2022-10-26T03:36:15;6.37;;;4.00;;
19887;SDS011;10106;51.332;12.336;2022-10-26T03:38:41;7.63;;;4.23;;
19887;SDS011;10106;51.332;12.336;2022-10-26T03:41:06;4.50;;;3.80;;
19887;SDS011;10106;51.332;12.336;2022-10-26T03:43:32;4.57;;;3.90;;
19887;SDS011;10106;51.332;12.336;2022-10-26T03:45:57;7.80;;;5.07;;
19887;SDS011;10106;51.332;12.336;2022-10-26T03:48:23;6.83;;;4.67;;
19887;SDS011;10106;51.332;12.336;2022-10-26T03:50:48;7.70;;;4.83;;
19887;SDS011;10106;51.332;12.336;2022-10-26T03:53:14;8.33;;;3.97;;
19887;SDS011;10106;51.332;12.336;2022-10-26T03:55:42;8.67;;;4.40;;
19887;SDS011;10106;51.332;12.336;2022-10-26T03:58:08;7.27;;;5.00;;
19887;SDS011;10106;51.332;12.336;2022-10-26T04:00:34;7.80;;;4.67;;
19887;SDS011;10106;51.332;12.336;2022-10-26T04:02:59;8.07;;;4.57;;
19887;SDS011;10106;51.332;12.336;2022-10-26T04:05:26;14.37;;;4.30;;
19887;SDS011;10106;51.332;12.336;2022-10-26T04:07:53;8.50;;;4.90;;
19887;SDS011;10106;51.332;12.336;2022-10-26T04:10:18;6.50;;;4.97;;
19887;SDS011;10106;51.332;12.336;2022-10-26T04:12:44;9.83;;;5.03;;
19887;SDS011;10106;51.332;12.336;2022-10-26T04:15:10;6.63;;;4.67;;
19887;SDS011;10106;51.332;12.336;2022-10-26T04:17:35;12.03;;;5.00;;
19887;SDS011;10106;51.332;12.336;2022-10-26T04:20:01;8.00;;;4.90;;
19887;SDS011;10106;51.332;12.336;2022-10-26T04:22:26;6.50;;;4.50;;
19887;SDS011;10106;51.332;12.336;2022-10-26T04:24:52;12.83;;;5.00;;
19887;SDS011;10106;51.332;12.336;2022-10-26T04:27:18;15.43;;;4.50;;
19887;SDS011;10106;51.332;12.336;2022-10-26T04:29:43;4.90;;;3.57;;
19887;SDS011;10106;51.332;12.336;2022-10-26T04:32:09;9.13;;;5.10;;
19887;SDS011;10106;51.332;12.336;2022-10-26T04:34:34;13.07;;;5.53;;
19887;SDS011;10106;51.332;12.336;2022-10-26T04:37:00;6.80;;;4.60;;
19887;SDS011;10106;51.332;12.336;2022-10-26T04:39:25;12.83;;;3.80;;
19887;SDS011;10106;51.332;12.336;2022-10-26T04:41:52;17.73;;;3.97;;
19887;SDS011;10106;51.332;12.336;2022-10-26T04:44:18;4.60;;;3.83;;
19887;SDS011;10106;51.332;12.336;2022-10-26T04:46:43;8.43;;;4.17;;
19887;SDS011;10106;51.332;12.336;2022-10-26T04:49:09;7.27;;;3.27;;
19887;SDS011;10106;51.332;12.336;2022-10-26T04:51:35;4.60;;;3.13;;
19887;SDS011;10106;51.332;12.336;2022-10-26T04:54:00;3.70;;;3.37;;
19887;SDS011;10106;51.332;12.336;2022-10-26T04:56:27;4.00;;;3.60;;
19887;SDS011;10106;51.332;12.336;2022-10-26T04:58:53;7.70;;;4.07;;
19887;SDS011;10106;51.332;12.336;2022-10-26T05:06:29;5.93;;;3.87;;
19887;SDS011;10106;51.332;12.336;2022-10-26T05:08:55;5.20;;;4.10;;
19887;SDS011;10106;51.332;12.336;2022-10-26T05:11:20;7.90;;;3.70;;
19887;SDS011;10106;51.332;12.336;2022-10-26T05:13:46;3.20;;;2.90;;
19887;SDS011;10106;51.332;12.336;2022-10-26T05:16:13;4.70;;;3.60;;
19887;SDS011;10106;51.332;12.336;2022-10-26T05:18:39;5.83;;;3.40;;
19887;SDS011;10106;51.332;12.336;2022-10-26T05:21:05;16.37;;;4.33;;
19887;SDS011;10106;51.332;12.336;2022-10-26T05:23:30;5.83;;;3.90;;
19887;SDS011;10106;51.332;12.336;2022-10-26T05:25:56;6.73;;;3.40;;
19887;SDS011;10106;51.332;12.336;2022-10-26T05:28:21;6.00;;;3.97;;
19887;SDS011;10106;51.332;12.336;2022-10-26T05:30:47;5.03;;;3.50;;
19887;SDS011;10106;51.332;12.336;2022-10-26T05:33:13;6.50;;;3.50;;
19887;SDS011;10106;51.332;12.336;2022-10-26T05:35:39;3.67;;;3.33;;
19887;SDS011;10106;51.332;12.336;2022-10-26T05:38:08;6.17;;;3.57;;
19887;SDS011;10106;51.332;12.336;2022-10-26T05:40:45;3.70;;;3.13;;
19887;SDS011;10106;51.332;12.336;2022-10-26T05:43:11;4.43;;;2.70;;
19887;SDS011;10106;51.332;12.336;2022-10-26T05:45:38;3.73;;;3.33;;
19887;SDS011;10106;51.332;12.336;2022-10-26T05:48:03;4.80;;;3.47;;
19887;SDS011;10106;51.332;12.336;2022-10-26T05:50:29;8.70;;;3.87;;
19887;SDS011;10106;51.332;12.336;2022-10-26T05:52:55;19.33;;;3.80;;
19887;SDS011;10106;51.332;12.336;2022-10-26T05:55:21;4.03;;;3.30;;
19887;SDS011;10106;51.332;12.336;2022-10-26T05:57:47;6.87;;;4.00;;
19887;SDS011;10106;51.332;12.336;2022-10-26T06:05:13;6.27;;;2.87;;
19887;SDS011;10106;51.332;12.336;2022-10-26T06:07:46;3.87;;;3.23;;
19887;SDS011;10106;51.332;12.336;2022-10-26T06:10:12;5.63;;;3.47;;
19887;SDS011;10106;51.332;12.336;2022-10-26T06:12:38;5.30;;;3.20;;
19887;SDS011;10106;51.332;12.336;2022-10-26T06:15:04;3.60;;;3.10;;
19887;SDS011;10106;51.332;12.336;2022-10-26T06:20:35;4.13;;;3.30;;
19887;SDS011;10106;51.332;12.336;2022-10-26T06:23:23;2.70;;;2.50;;
19887;SDS011;10106;51.332;12.336;2022-10-26T06:26:16;3.67;;;3.20;;
19887;SDS011;10106;51.332;12.336;2022-10-26T06:28:53;10.53;;;3.40;;
19887;SDS011;10106;51.332;12.336;2022-10-26T06:31:25;4.33;;;3.20;;
19887;SDS011;10106;51.332;12.336;2022-10-26T06:33:52;5.80;;;3.67;;
19887;SDS011;10106;51.332;12.336;2022-10-26T06:36:23;11.63;;;3.27;;
19887;SDS011;10106;51.332;12.336;2022-10-26T06:39:04;6.23;;;4.50;;
19887;SDS011;10106;51.332;12.336;2022-10-26T06:41:33;4.23;;;2.73;;
19887;SDS011;10106;51.332;12.336;2022-10-26T06:44:00;3.53;;;3.23;;
19887;SDS011;10106;51.332;12.336;2022-10-26T06:52:09;4.00;;;2.67;;
19887;SDS011;10106;51.332;12.336;2022-10-26T06:57:15;4.23;;;3.13;;
19887;SDS011;10106;51.332;12.336;2022-10-26T06:59:44;3.90;;;2.30;;
19887;SDS011;10106;51.332;12.336;2022-10-26T07:02:14;2.47;;;2.30;;
19887;SDS011;10106;51.332;12.336;2022-10-26T07:04:41;2.97;;;2.67;;
19887;SDS011;10106;51.332;12.336;2022-10-26T07:07:10;6.80;;;2.93;;
19887;SDS011;10106;51.332;12.336;2022-10-26T07:09:41;3.57;;;2.50;;
19887;SDS011;10106;51.332;12.336;2022-10-26T07:12:07;4.33;;;3.33;;
19887;SDS011;10106;51.332;12.336;2022-10-26T07:14:33;4.93;;;3.20;;
19887;SDS011;10106;51.332;12.336;2022-10-26T07:16:58;5.80;;;2.80;;
19887;SDS011;10106;51.332;12.336;2022-10-26T07:19:24;5.00;;;2.73;;
19887;SDS011;10106;51.332;12.336;2022-10-26T07:21:50;3.83;;;3.10;;
19887;SDS011;10106;51.332;12.336;2022-10-26T07:24:17;6.47;;;2.90;;
19887;SDS011;10106;51.332;12.336;2022-10-26T07:26:43;7.20;;;3.20;;
19887;SDS011;10106;51.332;12.336;2022-10-26T07:29:08;3.93;;;2.47;;
19887;SDS011;10106;51.332;12.336;2022-10-26T07:31:34;5.20;;;3.30;;
19887;SDS011;10106;51.332;12.336;2022-10-26T07:34:00;11.10;;;2.80;;
19887;SDS011;10106;51.332;12.336;2022-10-26T07:36:27;6.20;;;3.80;;
19887;SDS011;10106;51.332;12.336;2022-10-26T07:38:53;7.20;;;3.13;;
19887;SDS011;10106;51.332;12.336;2022-10-26T07:41:19;10.67;;;2.77;;
19887;SDS011;10106;51.332;12.336;2022-10-26T07:43:44;3.30;;;2.10;;
19887;SDS011;10106;51.332;12.336;2022-10-26T07:46:13;2.80;;;2.53;;
19887;SDS011;10106;51.332;12.336;2022-10-26T07:48:40;5.10;;;3.00;;
19887;SDS011;10106;51.332;12.336;2022-10-26T07:51:06;3.00;;;2.60;;
19887;SDS011;10106;51.332;12.336;2022-10-26T07:53:32;4.20;;;2.57;;
19887;SDS011;10106;51.332;12.336;2022-10-26T07:55:57;3.80;;;3.07;;
19887;SDS011;10106;51.332;12.336;2022-10-26T07:58:23;4.40;;;2.40;;
19887;SDS011;10106;51.332;12.336;2022-10-26T08:00:53;6.67;;;3.03;;
19887;SDS011;10106;51.332;12.336;2022-10-26T08:03:19;4.57;;;3.23;;
19887;SDS011;10106;51.332;12.336;2022-10-26T08:05:46;5.77;;;2.97;;
19887;SDS011;10106;51.332;12.336;2022-10-26T08:08:15;5.63;;;3.13;;
19887;SDS011;10106;51.332;12.336;2022-10-26T08:10:42;4.67;;;2.60;;
19887;SDS011;10106;51.332;12.336;2022-10-26T08:13:08;3.53;;;2.20;;
19887;SDS011;10106;51.332;12.336;2022-10-26T08:15:34;5.47;;;2.60;;
19887;SDS011;10106;51.332;12.336;2022-10-26T08:18:00;3.17;;;2.37;;
19887;SDS011;10106;51.332;12.336;2022-10-26T08:20:26;3.00;;;2.70;;
19887;SDS011;10106;51.332;12.336;2022-10-26T08:22:54;3.07;;;2.50;;
19887;SDS011;10106;51.332;12.336;2022-10-26T08:25:20;2.30;;;2.10;;
19887;SDS011;10106;51.332;12.336;2022-10-26T08:27:46;2.40;;;2.20;;
19887;SDS011;10106;51.332;12.336;2022-10-26T08:30:12;12.53;;;3.10;;
19887;SDS011;10106;51.332;12.336;2022-10-26T08:32:37;3.80;;;2.47;;
19887;SDS011;10106;51.332;12.336;2022-10-26T08:35:03;3.10;;;2.13;;
19887;SDS011;10106;51.332;12.336;2022-10-26T08:37:29;3.20;;;2.87;;
19887;SDS011;10106;51.332;12.336;2022-10-26T08:39:54;2.67;;;2.43;;
19887;SDS011;10106;51.332;12.336;2022-10-26T08:44:54;3.60;;;2.60;;
19887;SDS011;10106;51.332;12.336;2022-10-26T08:47:29;4.43;;;2.37;;
19887;SDS011;10106;51.332;12.336;2022-10-26T08:50:24;4.10;;;2.63;;
19887;SDS011;10106;51.332;12.336;2022-10-26T08:52:56;4.77;;;2.67;;
19887;SDS011;10106;51.332;12.336;2022-10-26T08:55:46;7.00;;;2.70;;
19887;SDS011;10106;51.332;12.336;2022-10-26T08:58:30;4.10;;;2.70;;
19887;SDS011;10106;51.332;12.336;2022-10-26T09:01:02;4.13;;;2.43;;
19887;SDS011;10106;51.332;12.336;2022-10-26T09:03:29;3.60;;;2.40;;
19887;SDS011;10106;51.332;12.336;2022-10-26T09:11:39;5.97;;;3.20;;
19887;SDS011;10106;51.332;12.336;2022-10-26T09:14:38;3.37;;;2.20;;
19887;SDS011;10106;51.332;12.336;2022-10-26T09:20:37;4.10;;;2.47;;
19887;SDS011;10106;51.332;12.336;2022-10-26T09:23:28;5.90;;;2.30;;
19887;SDS011;10106;51.332;12.336;2022-10-26T09:26:02;2.60;;;2.40;;
19887;SDS011;10106;51.332;12.336;2022-10-26T09:28:34;2.42;;;2.22;;
19887;SDS011;10106;51.332;12.336;2022-10-26T09:31:02;8.77;;;3.08;;
19887;SDS011;10106;51.332;12.336;2022-10-26T09:33:29;3.80;;;2.63;;
19887;SDS011;10106;51.332;12.336;2022-10-26T09:36:03;5.05;;;2.60;;
19887;SDS011;10106;51.332;12.336;2022-10-26T09:39:11;2.73;;;2.17;;
19887;SDS011;10106;51.332;12.336;2022-10-26T09:44:30;7.40;;;2.70;;
19887;SDS011;10106;51.332;12.336;2022-10-26T09:47:15;7.93;;;2.60;;
19887;SDS011;10106;51.332;12.336;2022-10-26T09:49:46;10.30;;;3.00;;
19887;SDS011;10106;51.332;12.336;2022-10-26T09:52:17;3.87;;;2.70;;
19887;SDS011;10106;51.332;12.336;2022-10-26T09:54:43;3.33;;;2.40;;
19887;SDS011;10106;51.332;12.336;2022-10-26T09:57:09;3.00;;;2.30;;
19887;SDS011;10106;51.332;12.336;2022-10-26T09:59:40;4.60;;;2.33;;
19887;SDS011;10106;51.332;12.336;2022-10-26T10:04:56;3.90;;;2.20;;
19887;SDS011;10106;51.332;12.336;2022-10-26T10:07:22;3.10;;;2.00;;
19887;SDS011;10106;51.332;12.336;2022-10-26T10:12:33;3.17;;;2.17;;
19887;SDS011;10106;51.332;12.336;2022-10-26T10:14:59;5.30;;;3.10;;
19887;SDS011;10106;51.332;12.336;2022-10-26T10:17:25;3.73;;;2.37;;
19887;SDS011;10106;51.332;12.336;2022-10-26T10:19:51;3.50;;;2.23;;
19887;SDS011;10106;51.332;12.336;2022-10-26T10:22:18;3.23;;;2.20;;
19887;SDS011;10106;51.332;12.336;2022-10-26T10:24:54;5.13;;;2.83;;
19887;SDS011;10106;51.332;12.336;2022-10-26T10:27:22;4.07;;;2.60;;
19887;SDS011;10106;51.332;12.336;2022-10-26T10:29:52;3.43;;;2.20;;
19887;SDS011;10106;51.332;12.336;2022-10-26T10:32:23;9.60;;;3.10;;
19887;SDS011;10106;51.332;12.336;2022-10-26T10:34:57;3.97;;;2.47;;
19887;SDS011;10106;51.332;12.336;2022-10-26T10:37:29;3.80;;;2.47;;
19887;SDS011;10106;51.332;12.336;2022-10-26T10:39:58;3.93;;;2.50;;
19887;SDS011;10106;51.332;12.336;2022-10-26T10:42:29;4.07;;;3.10;;
19887;SDS011;10106;51.332;12.336;2022-10-26T10:44:57;7.40;;;2.50;;
19887;SDS011;10106;51.332;12.336;2022-10-26T10:47:28;7.93;;;2.60;;
19887;SDS011;10106;51.332;12.336;2022-10-26T10:52:33;3.63;;;3.00;;
19887;SDS011;10106;51.332;12.336;2022-10-26T10:55:14;3.43;;;2.90;;
19887;SDS011;10106;51.332;12.336;2022-10-26T11:00:46;5.77;;;3.10;;
19887;SDS011;10106;51.332;12.336;2022-10-26T11:09:15;16.07;;;3.00;;
19887;SDS011;10106;51.332;12.336;2022-10-26T11:12:30;3.50;;;2.83;;
19887;SDS011;10106;51.332;12.336;2022-10-26T11:14:44;8.10;;;3.57;;
19887;SDS011;10106;51.332;12.336;2022-10-26T11:17:16;7.43;;;2.97;;
19887;SDS011;10106;51.332;12.336;2022-10-26T11:22:28;14.13;;;3.00;;
19887;SDS011;10106;51.332;12.336;2022-10-26T11:25:02;3.97;;;2.20;;
19887;SDS011;10106;51.332;12.336;2022-10-26T11:27:44;3.43;;;2.73;;
19887;SDS011;10106;51.332;12.336;2022-10-26T11:30:17;3.13;;;2.03;;
19887;SDS011;10106;51.332;12.336;2022-10-26T11:35:30;4.77;;;2.60;;
19887;SDS011;10106;51.332;12.336;2022-10-26T11:38:12;3.30;;;2.07;;
19887;SDS011;10106;51.332;12.336;2022-10-26T11:40:51;8.10;;;2.77;;
19887;SDS011;10106;51.332;12.336;2022-10-26T11:43:45;14.63;;;3.00;;
19887;SDS011;10106;51.332;12.336;2022-10-26T11:46:12;6.80;;;3.57;;
19887;SDS011;10106;51.332;12.336;2022-10-26T11:48:57;12.10;;;2.67;;
19887;SDS011;10106;51.332;12.336;2022-10-26T11:51:37;5.10;;;2.60;;
19887;SDS011;10106;51.332;12.336;2022-10-26T11:55:00;2.93;;;2.13;;
19887;SDS011;10106;51.332;12.336;2022-10-26T11:57:17;14.67;;;3.10;;
19887;SDS011;10106;51.332;12.336;2022-10-26T11:59:47;5.43;;;2.33;;
19887;SDS011;10106;51.332;12.336;2022-10-26T12:02:23;7.23;;;2.80;;
19887;SDS011;10106;51.332;12.336;2022-10-26T12:04:52;5.90;;;1.90;;
19887;SDS011;10106;51.332;12.336;2022-10-26T12:07:37;5.77;;;2.23;;
19887;SDS011;10106;51.332;12.336;2022-10-26T12:10:05;9.87;;;2.70;;
19887;SDS011;10106;51.332;12.336;2022-10-26T12:12:52;9.33;;;2.70;;
19887;SDS011;10106;51.332;12.336;2022-10-26T12:15:35;4.57;;;2.00;;
19887;SDS011;10106;51.332;12.336;2022-10-26T12:18:20;3.10;;;2.20;;
19887;SDS011;10106;51.332;12.336;2022-10-26T12:21:07;10.37;;;2.87;;
19887;SDS011;10106;51.332;12.336;2022-10-26T12:23:38;2.10;;;1.77;;
19887;SDS011;10106;51.332;12.336;2022-10-26T12:34:04;13.03;;;3.27;;
19887;SDS011;10106;51.332;12.336;2022-10-26T12:36:47;3.20;;;1.73;;
19887;SDS011;10106;51.332;12.336;2022-10-26T12:39:35;7.83;;;2.30;;
19887;SDS011;10106;51.332;12.336;2022-10-26T12:44:33;2.97;;;2.23;;
19887;SDS011;10106;51.332;12.336;2022-10-26T12:47:01;5.67;;;1.90;;
19887;SDS011;10106;51.332;12.336;2022-10-26T12:52:26;3.80;;;3.10;;
19887;SDS011;10106;51.332;12.336;2022-10-26T12:57:34;3.40;;;3.10;;
19887;SDS011;10106;51.332;12.336;2022-10-26T13:00:22;4.77;;;3.00;;
19887;SDS011;10106;51.332;12.336;2022-10-26T13:06:00;3.93;;;2.60;;
19887;SDS011;10106;51.332;12.336;2022-10-26T13:08:49;3.30;;;2.40;;
19887;SDS011;10106;51.332;12.336;2022-10-26T13:11:20;4.90;;;2.50;;
19887;SDS011;10106;51.332;12.336;2022-10-26T13:13:54;4.33;;;2.30;;
19887;SDS011;10106;51.332;12.336;2022-10-26T13:16:23;3.50;;;2.07;;
19887;SDS011;10106;51.332;12.336;2022-10-26T13:18:51;3.37;;;2.37;;
19887;SDS011;10106;51.332;12.336;2022-10-26T13:21:19;7.27;;;2.47;;
19887;SDS011;10106;51.332;12.336;2022-10-26T13:26:23;3.10;;;2.13;;
19887;SDS011;10106;51.332;12.336;2022-10-26T13:39:05;2.80;;;1.90;;
19887;SDS011;10106;51.332;12.336;2022-10-26T13:41:39;9.37;;;3.80;;
19887;SDS011;10106;51.332;12.336;2022-10-26T13:44:12;2.97;;;2.60;;
19887;SDS011;10106;51.332;12.336;2022-10-26T13:46:45;2.30;;;2.10;;
19887;SDS011;10106;51.332;12.336;2022-10-26T13:49:22;3.43;;;2.23;;
19887;SDS011;10106;51.332;12.336;2022-10-26T13:52:00;8.83;;;2.33;;
19887;SDS011;10106;51.332;12.336;2022-10-26T13:54:35;26.97;;;4.00;;
19887;SDS011;10106;51.332;12.336;2022-10-26T13:57:31;6.50;;;2.40;;
19887;SDS011;10106;51.332;12.336;2022-10-26T14:00:07;4.00;;;2.40;;
19887;SDS011;10106;51.332;12.336;2022-10-26T14:02:42;7.50;;;1.87;;
19887;SDS011;10106;51.332;12.336;2022-10-26T14:05:09;5.23;;;2.00;;
19887;SDS011;10106;51.332;12.336;2022-10-26T14:07:43;3.87;;;2.23;;
19887;SDS011;10106;51.332;12.336;2022-10-26T14:10:22;2.87;;;2.10;;
19887;SDS011;10106;51.332;12.336;2022-10-26T14:12:54;3.87;;;3.10;;
19887;SDS011;10106;51.332;12.336;2022-10-26T14:15:24;4.77;;;2.53;;
19887;SDS011;10106;51.332;12.336;2022-10-26T14:17:52;8.90;;;3.17;;
19887;SDS011;10106;51.332;12.336;2022-10-26T14:20:20;7.90;;;2.43;;
19887;SDS011;10106;51.332;12.336;2022-10-26T14:22:47;4.63;;;2.17;;
19887;SDS011;10106;51.332;12.336;2022-10-26T14:25:18;3.30;;;2.33;;
19887;SDS011;10106;51.332;12.336;2022-10-26T14:27:51;5.30;;;2.43;;
19887;SDS011;10106;51.332;12.336;2022-10-26T14:30:21;3.83;;;2.50;;
19887;SDS011;10106;51.332;12.336;2022-10-26T14:32:47;9.30;;;2.87;;
19887;SDS011;10106;51.332;12.336;2022-10-26T14:35:14;4.37;;;2.73;;
19887;SDS011;10106;51.332;12.336;2022-10-26T14:40:22;7.47;;;3.07;;
19887;SDS011;10106;51.332;12.336;2022-10-26T14:42:50;3.60;;;2.20;;
19887;SDS011;10106;51.332;12.336;2022-10-26T14:47:58;9.67;;;3.13;;
19887;SDS011;10106;51.332;12.336;2022-10-26T14:50:25;4.30;;;2.90;;
19887;SDS011;10106;51.332;12.336;2022-10-26T14:53:16;4.70;;;2.83;;
19887;SDS011;10106;51.332;12.336;2022-10-26T14:55:49;4.00;;;2.53;;
19887;SDS011;10106;51.332;12.336;2022-10-26T14:58:17;3.53;;;2.70;;
19887;SDS011;10106;51.332;12.336;2022-10-26T15:00:47;8.53;;;2.50;;
19887;SDS011;10106;51.332;12.336;2022-10-26T15:03:32;4.90;;;2.77;;
19887;SDS011;10106;51.332;12.336;2022-10-26T15:06:20;2.20;;;2.00;;
19887;SDS011;10106;51.332;12.336;2022-10-26T15:08:54;4.53;;;2.10;;
19887;SDS011;10106;51.332;12.336;2022-10-26T15:11:20;3.40;;;2.50;;
19887;SDS011;10106;51.332;12.336;2022-10-26T15:13:46;3.50;;;2.77;;
19887;SDS011;10106;51.332;12.336;2022-10-26T15:16:16;7.10;;;2.50;;
19887;SDS011;10106;51.332;12.336;2022-10-26T15:18:46;4.90;;;2.77;;
19887;SDS011;10106;51.332;12.336;2022-10-26T15:23:47;4.33;;;2.70;;
19887;SDS011;10106;51.332;12.336;2022-10-26T15:26:14;2.90;;;2.57;;
19887;SDS011;10106;51.332;12.336;2022-10-26T15:28:39;4.53;;;2.63;;
19887;SDS011;10106;51.332;12.336;2022-10-26T15:33:36;5.17;;;2.33;;
19887;SDS011;10106;51.332;12.336;2022-10-26T15:38:32;4.90;;;2.90;;
19887;SDS011;10106;51.332;12.336;2022-10-26T15:40:58;7.30;;;2.67;;
19887;SDS011;10106;51.332;12.336;2022-10-26T15:43:24;7.13;;;3.40;;
19887;SDS011;10106;51.332;12.336;2022-10-26T15:45:50;4.67;;;3.57;;
19887;SDS011;10106;51.332;12.336;2022-10-26T15:48:24;5.37;;;3.30;;
19887;SDS011;10106;51.332;12.336;2022-10-26T15:50:52;7.75;;;4.45;;
19887;SDS011;10106;51.332;12.336;2022-10-26T15:53:19;6.00;;;3.87;;
19887;SDS011;10106;51.332;12.336;2022-10-26T15:55:50;9.43;;;3.77;;
19887;SDS011;10106;51.332;12.336;2022-10-26T15:58:17;12.23;;;3.63;;
19887;SDS011;10106;51.332;12.336;2022-10-26T16:00:43;4.13;;;2.80;;
19887;SDS011;10106;51.332;12.336;2022-10-26T16:03:13;11.40;;;3.57;;
19887;SDS011;10106;51.332;12.336;2022-10-26T16:05:46;6.10;;;2.80;;
19887;SDS011;10106;51.332;12.336;2022-10-26T16:08:17;3.70;;;3.30;;
19887;SDS011;10106;51.332;12.336;2022-10-26T16:10:43;5.57;;;3.57;;
19887;SDS011;10106;51.332;12.336;2022-10-26T16:13:12;4.20;;;3.60;;
19887;SDS011;10106;51.332;12.336;2022-10-26T16:15:39;6.30;;;3.30;;
19887;SDS011;10106;51.332;12.336;2022-10-26T16:18:05;5.73;;;3.20;;
19887;SDS011;10106;51.332;12.336;2022-10-26T16:20:31;6.20;;;4.23;;
19887;SDS011;10106;51.332;12.336;2022-10-26T16:22:56;11.23;;;4.83;;
19887;SDS011;10106;51.332;12.336;2022-10-26T16:25:25;5.77;;;3.70;;
19887;SDS011;10106;51.332;12.336;2022-10-26T16:27:51;4.60;;;3.60;;
19887;SDS011;10106;51.332;12.336;2022-10-26T16:30:19;4.40;;;3.60;;
19887;SDS011;10106;51.332;12.336;2022-10-26T16:32:45;3.63;;;2.97;;
19887;SDS011;10106;51.332;12.336;2022-10-26T16:35:11;4.97;;;3.37;;
19887;SDS011;10106;51.332;12.336;2022-10-26T16:37:38;6.17;;;4.03;;
19887;SDS011;10106;51.332;12.336;2022-10-26T16:40:04;6.00;;;4.10;;
19887;SDS011;10106;51.332;12.336;2022-10-26T16:42:31;5.47;;;4.23;;
19887;SDS011;10106;51.332;12.336;2022-10-26T16:44:59;8.70;;;4.80;;
19887;SDS011;10106;51.332;12.336;2022-10-26T16:47:26;11.80;;;6.23;;
19887;SDS011;10106;51.332;12.336;2022-10-26T16:49:51;6.60;;;4.30;;
19887;SDS011;10106;51.332;12.336;2022-10-26T16:52:17;17.47;;;5.73;;
19887;SDS011;10106;51.332;12.336;2022-10-26T16:54:42;7.20;;;4.50;;
19887;SDS011;10106;51.332;12.336;2022-10-26T16:57:08;8.60;;;4.50;;
19887;SDS011;10106;51.332;12.336;2022-10-26T16:59:35;5.97;;;4.00;;
19887;SDS011;10106;51.332;12.336;2022-10-26T17:02:00;10.27;;;4.70;;
19887;SDS011;10106;51.332;12.336;2022-10-26T17:04:26;8.87;;;5.30;;